createdAt,value
2022-08-02T00:00:44.423Z,21.30
2022-08-02T00:03:48.719Z,21.30
2022-08-02T00:06:51.685Z,21.20
2022-08-02T00:09:54.537Z,21.20
2022-08-02T00:12:57.721Z,21.20
2022-08-02T00:16:00.607Z,21.20
2022-08-02T00:19:05.432Z,21.20
2022-08-02T00:22:09.130Z,21.10
2022-08-02T00:25:12.331Z,21.00
2022-08-02T00:28:15.686Z,21.00
2022-08-02T00:31:18.621Z,21.10
2022-08-02T00:34:28.761Z,21.10
2022-08-02T00:37:33.993Z,21.00
2022-08-02T00:40:36.859Z,20.90
2022-08-02T00:43:40.023Z,20.80
2022-08-02T00:46:43.303Z,20.90
2022-08-02T00:49:47.576Z,20.90
2022-08-02T00:52:50.427Z,20.80
2022-08-02T00:55:53.365Z,20.80
2022-08-02T00:58:56.209Z,20.80
2022-08-02T01:01:59.143Z,20.90
2022-08-02T01:05:03.677Z,21.00
2022-08-02T01:08:06.591Z,21.00
2022-08-02T01:11:09.747Z,20.90
2022-08-02T01:14:14.877Z,20.80
2022-08-02T01:17:24.047Z,20.90
2022-08-02T01:20:57.037Z,21.00
2022-08-02T01:24:15.248Z,21.00
2022-08-02T01:27:34.611Z,21.10
2022-08-02T01:30:42.426Z,21.10
2022-08-02T01:33:50.673Z,21.10
2022-08-02T01:36:58.685Z,21.10
2022-08-02T01:40:06.933Z,21.10
2022-08-02T01:43:12.226Z,21.10
2022-08-02T01:46:18.516Z,21.20
2022-08-02T01:49:24.860Z,21.30
2022-08-02T01:52:32.026Z,21.30
2022-08-02T01:55:58.266Z,21.30
2022-08-02T01:59:02.209Z,21.20
2022-08-02T02:02:09.699Z,21.30
2022-08-02T02:05:14.344Z,21.30
2022-08-02T02:08:27.219Z,21.20
2022-08-02T02:12:06.259Z,21.10
2022-08-02T02:14:55.737Z,21.10
2022-08-02T02:18:12.317Z,21.10
2022-08-02T02:21:16.754Z,21.00
2022-08-02T02:24:19.758Z,21.00
2022-08-02T02:27:24.808Z,21.00
2022-08-02T02:30:29.284Z,21.00
2022-08-02T02:33:36.400Z,21.00
2022-08-02T02:36:42.342Z,21.00
2022-08-02T02:39:46.479Z,21.00
2022-08-02T02:42:50.832Z,20.90
2022-08-02T02:45:54.825Z,20.90
2022-08-02T02:48:59.858Z,21.00
2022-08-02T02:52:03.729Z,21.00
2022-08-02T02:55:08.885Z,21.00
2022-08-02T02:58:12.489Z,21.00
2022-08-02T03:01:56.290Z,21.00
2022-08-02T03:04:58.211Z,20.90
2022-08-02T03:08:01.246Z,20.90
2022-08-02T03:11:04.580Z,20.90
2022-08-02T03:14:11.262Z,21.00
2022-08-02T03:17:14.725Z,21.00
2022-08-02T03:20:22.629Z,21.10
2022-08-02T03:23:25.500Z,21.00
2022-08-02T03:26:28.345Z,21.00
2022-08-02T03:29:34.447Z,21.00
2022-08-02T03:32:38.678Z,21.00
2022-08-02T03:35:45.060Z,21.00
2022-08-02T03:38:49.017Z,21.00
2022-08-02T03:41:52.289Z,20.90
2022-08-02T03:44:56.085Z,20.90
2022-08-02T03:47:59.601Z,20.90
2022-08-02T03:51:03.953Z,20.90
2022-08-02T03:54:07.441Z,20.90
2022-08-02T03:57:11.437Z,20.80
2022-08-02T04:00:19.668Z,20.70
2022-08-02T04:03:22.530Z,20.60
2022-08-02T04:06:28.474Z,20.60
2022-08-02T04:09:31.731Z,20.60
2022-08-02T04:12:34.665Z,20.50
2022-08-02T04:15:38.633Z,20.50
2022-08-02T04:18:46.228Z,20.50
2022-08-02T04:21:54.237Z,20.60
2022-08-02T04:25:00.469Z,20.60
2022-08-02T04:28:17.454Z,20.60
2022-08-02T04:31:21.391Z,20.60
2022-08-02T04:34:24.423Z,20.60
2022-08-02T04:37:28.996Z,20.60
2022-08-02T04:40:31.917Z,20.60
2022-08-02T04:43:35.249Z,20.60
2022-08-02T04:46:38.532Z,20.50
2022-08-02T04:49:41.408Z,20.60
2022-08-02T04:52:46.051Z,20.50
2022-08-02T04:55:49.027Z,20.60
2022-08-02T04:58:51.889Z,20.60
2022-08-02T05:01:54.737Z,20.70
2022-08-02T05:04:57.606Z,20.70
2022-08-02T05:08:02.353Z,20.80
2022-08-02T05:11:05.240Z,20.80
2022-08-02T05:14:08.130Z,20.70
2022-08-02T05:17:11.069Z,20.80
2022-08-02T05:20:14.583Z,20.80
2022-08-02T05:23:18.750Z,20.80
2022-08-02T05:26:21.743Z,20.90
2022-08-02T05:29:24.619Z,20.80
2022-08-02T05:32:27.805Z,20.90
2022-08-02T05:35:30.668Z,21.00
2022-08-02T05:38:37.064Z,21.00
2022-08-02T05:41:40.283Z,20.90
2022-08-02T05:44:43.141Z,20.90
2022-08-02T05:47:46.099Z,20.80
2022-08-02T05:50:51.113Z,20.80
2022-08-02T05:54:03.558Z,20.70
2022-08-02T05:57:09.333Z,20.70
2022-08-02T06:00:14.496Z,20.80
2022-08-02T06:03:25.212Z,20.70
2022-08-02T06:06:30.457Z,20.70
2022-08-02T06:09:35.728Z,20.70
2022-08-02T06:12:45.430Z,20.70
2022-08-02T06:15:53.900Z,20.80
2022-08-02T06:18:58.243Z,20.80
2022-08-02T06:22:32.032Z,20.90
2022-08-02T06:25:49.777Z,20.90
2022-08-02T06:28:55.446Z,20.90
2022-08-02T06:31:59.427Z,21.00
2022-08-02T06:35:02.865Z,20.70
2022-08-02T06:38:06.719Z,20.70
2022-08-02T06:41:14.787Z,20.60
2022-08-02T06:44:46.012Z,20.80
2022-08-02T06:47:40.600Z,20.90
2022-08-02T06:50:44.295Z,21.00
2022-08-02T06:53:47.697Z,21.10
2022-08-02T06:56:51.899Z,21.10
2022-08-02T06:59:55.243Z,21.20
2022-08-02T07:02:58.605Z,21.30
2022-08-02T07:06:01.550Z,21.50
2022-08-02T07:09:20.695Z,21.50
2022-08-02T07:12:25.873Z,21.60
2022-08-02T07:15:28.820Z,21.70
2022-08-02T07:18:31.744Z,21.80
2022-08-02T07:21:56.318Z,21.80
2022-08-02T07:24:59.810Z,21.80
2022-08-02T07:28:04.296Z,21.80
2022-08-02T07:31:07.208Z,21.60
2022-08-02T07:34:10.047Z,21.80
2022-08-02T07:37:20.610Z,21.80
2022-08-02T07:40:37.062Z,22.00
2022-08-02T07:43:41.255Z,22.20
2022-08-02T07:46:44.954Z,22.20
2022-08-02T07:49:47.833Z,22.20
2022-08-02T07:52:57.347Z,22.30
2022-08-02T07:56:00.980Z,22.20
2022-08-02T07:59:05.175Z,22.30
2022-08-02T08:02:08.369Z,22.30
2022-08-02T08:05:12.198Z,22.40
2022-08-02T08:08:17.584Z,22.50
2022-08-02T08:11:20.670Z,22.60
2022-08-02T08:14:24.829Z,22.70
2022-08-02T08:17:27.800Z,22.90
2022-08-02T08:20:30.691Z,23.00
2022-08-02T08:23:33.600Z,23.10
2022-08-02T08:26:36.514Z,23.10
2022-08-02T08:29:41.047Z,23.00
2022-08-02T08:32:44.295Z,23.20
2022-08-02T08:35:47.206Z,23.30
2022-08-02T08:38:50.362Z,23.30
2022-08-02T08:41:53.350Z,23.50
2022-08-02T08:44:58.490Z,23.60
2022-08-02T08:48:08.845Z,23.80
2022-08-02T08:51:16.213Z,24.00
2022-08-02T08:54:20.368Z,24.00
2022-08-02T08:57:23.585Z,24.00
2022-08-02T09:00:28.364Z,24.00
2022-08-02T09:03:33.967Z,24.00
2022-08-02T09:06:37.059Z,24.10
2022-08-02T09:09:39.910Z,24.10
2022-08-02T09:12:42.949Z,24.30
2022-08-02T09:15:56.395Z,24.40
2022-08-02T09:19:01.593Z,24.50
2022-08-02T09:22:07.952Z,24.60
2022-08-02T09:25:16.846Z,24.60
2022-08-02T09:28:19.724Z,24.40
2022-08-02T09:31:25.031Z,24.50
2022-08-02T09:34:47.008Z,24.30
2022-08-02T09:37:49.857Z,24.30
2022-08-02T09:40:52.760Z,24.60
2022-08-02T09:44:03.353Z,24.80
2022-08-02T09:47:17.526Z,25.00
2022-08-02T09:50:20.456Z,25.20
2022-08-02T09:53:24.738Z,25.10
2022-08-02T09:56:30.236Z,25.20
2022-08-02T09:59:38.688Z,25.20
2022-08-02T10:03:22.200Z,25.40
2022-08-02T10:06:26.292Z,25.70
2022-08-02T10:09:29.829Z,25.80
2022-08-02T10:12:32.848Z,25.90
2022-08-02T10:15:36.294Z,25.90
2022-08-02T10:18:41.481Z,26.10
2022-08-02T10:21:47.205Z,26.10
2022-08-02T10:24:51.490Z,26.00
2022-08-02T10:28:05.266Z,26.00
2022-08-02T10:31:09.567Z,25.70
2022-08-02T10:34:17.793Z,26.00
2022-08-02T10:37:22.000Z,26.40
2022-08-02T10:40:26.528Z,26.60
2022-08-02T10:43:49.268Z,26.70
2022-08-02T10:46:52.253Z,26.70
2022-08-02T10:49:58.201Z,26.90
2022-08-02T10:53:23.851Z,27.00
2022-08-02T10:56:47.128Z,27.10
2022-08-02T10:59:51.141Z,27.20
2022-08-02T11:02:54.527Z,27.40
2022-08-02T11:06:04.322Z,27.40
2022-08-02T11:09:37.785Z,27.50
2022-08-02T11:13:00.448Z,27.60
2022-08-02T11:16:11.135Z,27.90
2022-08-02T11:19:14.343Z,28.00
2022-08-02T11:22:25.225Z,28.30
2022-08-02T11:26:01.375Z,28.40
2022-08-02T11:28:59.063Z,28.30
2022-08-02T11:32:02.445Z,28.50
2022-08-02T11:35:06.101Z,28.50
2022-08-02T11:38:21.198Z,28.40
2022-08-02T11:41:45.926Z,28.30
2022-08-02T11:44:49.222Z,28.40
2022-08-02T11:47:54.276Z,28.70
2022-08-02T11:51:08.553Z,28.90
2022-08-02T11:54:12.792Z,29.10
2022-08-02T11:57:20.150Z,29.00
2022-08-02T12:00:23.618Z,28.80
2022-08-02T12:03:36.448Z,28.80
2022-08-02T12:06:39.388Z,28.90
2022-08-02T12:09:43.669Z,28.90
2022-08-02T12:12:50.801Z,29.00
2022-08-02T12:16:14.684Z,29.00
2022-08-02T12:19:19.488Z,29.20
2022-08-02T12:22:27.310Z,29.20
2022-08-02T12:25:34.450Z,29.30
2022-08-02T12:28:39.851Z,29.30
2022-08-02T12:31:55.652Z,29.50
2022-08-02T12:35:06.993Z,29.50
2022-08-02T12:38:11.436Z,29.70
2022-08-02T12:41:31.031Z,29.90
2022-08-02T12:44:36.671Z,30.10
2022-08-02T12:47:46.828Z,30.40
2022-08-02T12:50:49.761Z,30.70
2022-08-02T12:54:00.049Z,31.00
2022-08-02T12:57:13.216Z,30.90
2022-08-02T13:00:24.604Z,30.60
2022-08-02T13:04:09.754Z,30.80
2022-08-02T13:06:50.323Z,30.80
2022-08-02T13:10:03.131Z,30.70
2022-08-02T13:13:07.961Z,30.80
2022-08-02T13:16:11.741Z,31.00
2022-08-02T13:19:16.236Z,31.30
2022-08-02T13:22:19.225Z,31.40
2022-08-02T13:25:23.112Z,31.40
2022-08-02T13:28:27.509Z,31.40
2022-08-02T13:31:36.684Z,31.50
2022-08-02T13:34:40.346Z,31.60
2022-08-02T13:37:44.569Z,31.70
2022-08-02T13:41:05.379Z,31.80
2022-08-02T13:44:10.896Z,32.00
2022-08-02T13:47:14.058Z,31.90
2022-08-02T13:50:30.287Z,32.00
2022-08-02T13:53:33.332Z,31.70
2022-08-02T13:56:37.063Z,31.60
2022-08-02T13:59:56.626Z,31.60
2022-08-02T14:03:01.609Z,31.60
2022-08-02T14:06:06.687Z,31.80
2022-08-02T14:09:09.605Z,32.00
2022-08-02T14:12:18.741Z,32.10
2022-08-02T14:15:23.227Z,32.00
2022-08-02T14:18:29.266Z,32.10
2022-08-02T14:21:32.222Z,32.10
2022-08-02T14:24:50.228Z,32.10
2022-08-02T14:27:53.097Z,32.30
2022-08-02T14:30:57.293Z,32.30
2022-08-02T14:34:00.184Z,32.20
2022-08-02T14:37:03.069Z,32.20
2022-08-02T14:40:07.064Z,32.30
2022-08-02T14:43:47.427Z,32.20
2022-08-02T14:46:52.769Z,32.10
2022-08-02T14:49:56.100Z,32.30
2022-08-02T14:52:59.024Z,32.00
2022-08-02T14:56:01.902Z,32.00
2022-08-02T14:59:06.022Z,32.00
2022-08-02T15:02:11.899Z,32.10
2022-08-02T15:05:17.055Z,32.10
2022-08-02T15:08:20.111Z,32.10
2022-08-02T15:11:23.033Z,32.00
2022-08-02T15:14:26.555Z,31.80
2022-08-02T15:17:31.854Z,31.60
2022-08-02T15:20:34.750Z,31.40
2022-08-02T15:23:38.637Z,31.50
2022-08-02T15:26:42.164Z,31.60
2022-08-02T15:29:46.810Z,31.60
2022-08-02T15:32:53.176Z,31.60
2022-08-02T15:35:56.609Z,31.50
2022-08-02T15:38:59.475Z,31.50
2022-08-02T15:42:02.567Z,31.40
2022-08-02T15:45:06.053Z,31.40
2022-08-02T15:48:10.416Z,31.30
2022-08-02T15:51:13.299Z,31.30
2022-08-02T15:54:16.137Z,31.00
2022-08-02T15:57:18.987Z,30.80
2022-08-02T16:00:22.389Z,30.70
2022-08-02T16:03:26.677Z,30.60
2022-08-02T16:06:29.566Z,30.60
2022-08-02T16:09:32.502Z,30.60
2022-08-02T16:12:35.388Z,30.60
2022-08-02T16:15:38.348Z,30.60
2022-08-02T16:18:42.736Z,30.50
2022-08-02T16:21:45.890Z,30.40
2022-08-02T16:24:50.622Z,30.40
2022-08-02T16:28:06.026Z,30.40
2022-08-02T16:31:11.669Z,30.40
2022-08-02T16:34:16.150Z,30.40
2022-08-02T16:37:19.020Z,30.30
2022-08-02T16:40:22.376Z,30.30
2022-08-02T16:43:25.234Z,30.20
2022-08-02T16:46:30.424Z,30.20
2022-08-02T16:50:07.223Z,30.00
2022-08-02T16:52:58.847Z,30.00
2022-08-02T16:56:21.068Z,30.00
2022-08-02T16:59:25.650Z,30.00
2022-08-02T17:02:28.608Z,30.10
2022-08-02T17:05:37.883Z,30.10
2022-08-02T17:08:58.518Z,30.10
2022-08-02T17:12:01.970Z,30.00
2022-08-02T17:16:17.414Z,30.00
2022-08-02T17:18:28.982Z,30.00
2022-08-02T17:21:33.892Z,29.80
2022-08-02T17:24:36.987Z,29.80
2022-08-02T17:27:41.742Z,29.80
2022-08-02T17:30:44.739Z,29.80
2022-08-02T17:33:48.072Z,29.70
2022-08-02T17:36:52.452Z,29.70
2022-08-02T17:39:55.483Z,29.70
2022-08-02T17:42:58.384Z,29.60
2022-08-02T17:46:02.489Z,29.50
2022-08-02T17:49:17.997Z,29.50
2022-08-02T17:52:51.472Z,29.50
2022-08-02T17:55:51.126Z,29.40
2022-08-02T17:58:54.201Z,29.40
2022-08-02T18:02:01.180Z,29.30
2022-08-02T18:05:11.799Z,29.30
2022-08-02T18:08:17.409Z,29.30
2022-08-02T18:11:52.540Z,29.30
2022-08-02T18:14:49.094Z,29.30
2022-08-02T18:17:54.798Z,29.20
2022-08-02T18:21:16.045Z,29.10
2022-08-02T18:24:25.268Z,29.00
2022-08-02T18:27:31.886Z,29.00
2022-08-02T18:30:35.504Z,28.90
2022-08-02T18:33:59.272Z,28.90
2022-08-02T18:37:01.565Z,28.80
2022-08-02T18:40:06.849Z,28.70
2022-08-02T18:43:09.887Z,28.70
2022-08-02T18:46:19.879Z,28.70
2022-08-02T18:49:24.090Z,28.60
2022-08-02T18:52:31.222Z,28.50
2022-08-02T18:56:03.562Z,28.40
2022-08-02T18:58:59.235Z,28.40
2022-08-02T19:02:02.102Z,28.30
2022-08-02T19:05:06.874Z,28.30
2022-08-02T19:08:10.119Z,28.20
2022-08-02T19:11:15.400Z,28.10
2022-08-02T19:14:27.675Z,28.00
2022-08-02T19:17:54.976Z,27.90
2022-08-02T19:21:07.346Z,27.80
2022-08-02T19:24:11.419Z,27.80
2022-08-02T19:27:20.686Z,27.60
2022-08-02T19:30:29.021Z,27.50
2022-08-02T19:34:05.687Z,27.40
2022-08-02T19:36:54.690Z,27.40
2022-08-02T19:39:57.988Z,27.40
2022-08-02T19:44:26.416Z,27.30
2022-08-02T19:46:26.416Z,27.30
2022-08-02T19:49:39.921Z,27.20
2022-08-02T19:52:43.869Z,27.10
2022-08-02T19:56:01.511Z,27.00
2022-08-02T19:59:12.697Z,26.90
2022-08-02T20:02:17.053Z,26.90
2022-08-02T20:05:24.018Z,26.80
2022-08-02T20:08:35.395Z,26.80
2022-08-02T20:11:38.968Z,26.70
2022-08-02T20:14:51.258Z,26.60
2022-08-02T20:17:54.350Z,26.50
2022-08-02T20:20:57.352Z,26.40
2022-08-02T20:24:00.302Z,26.40
2022-08-02T20:27:04.501Z,26.30
2022-08-02T20:30:09.849Z,26.30
2022-08-02T20:33:21.009Z,26.10
2022-08-02T20:36:25.375Z,26.10
2022-08-02T20:39:42.633Z,25.90
2022-08-02T20:42:47.943Z,25.90
2022-08-02T20:45:52.687Z,25.90
2022-08-02T20:48:57.626Z,25.90
2022-08-02T20:52:04.564Z,25.80
2022-08-02T20:55:27.684Z,25.70
2022-08-02T20:58:33.789Z,25.60
2022-08-02T21:01:38.147Z,25.60
2022-08-02T21:04:42.465Z,25.60
2022-08-02T21:07:47.882Z,25.60
2022-08-02T21:10:56.949Z,25.60
2022-08-02T21:14:07.786Z,25.60
2022-08-02T21:17:18.118Z,25.50
2022-08-02T21:20:31.383Z,25.50
2022-08-02T21:23:36.463Z,25.40
2022-08-02T21:26:39.721Z,25.30
2022-08-02T21:29:43.651Z,25.20
2022-08-02T21:32:50.532Z,25.20
2022-08-02T21:35:54.396Z,25.10
2022-08-02T21:38:57.948Z,25.10
2022-08-02T21:42:01.799Z,25.10
2022-08-02T21:45:12.080Z,25.10
2022-08-02T21:48:21.757Z,25.00
2022-08-02T21:51:29.466Z,24.90
2022-08-02T21:54:39.945Z,24.90
2022-08-02T21:57:43.427Z,24.90
2022-08-02T22:00:46.346Z,24.90
2022-08-02T22:03:55.664Z,24.80
2022-08-02T22:06:58.776Z,24.80
2022-08-02T22:10:01.640Z,24.80
2022-08-02T22:13:05.595Z,24.70
2022-08-02T22:16:18.294Z,24.70
2022-08-02T22:19:22.863Z,24.60
2022-08-02T22:22:28.011Z,24.50
2022-08-02T22:25:37.424Z,24.50
2022-08-02T22:28:59.439Z,24.40
2022-08-02T22:32:03.055Z,24.30
2022-08-02T22:35:08.762Z,24.30
2022-08-02T22:38:16.208Z,24.30
2022-08-02T22:41:22.388Z,24.30
2022-08-02T22:44:25.613Z,24.20
2022-08-02T22:47:29.298Z,24.20
2022-08-02T22:50:42.901Z,24.20
2022-08-02T22:53:46.160Z,24.10
2022-08-02T22:56:49.009Z,24.10
2022-08-02T22:59:51.855Z,24.10
2022-08-02T23:02:54.841Z,24.10
2022-08-02T23:05:59.667Z,24.00
2022-08-02T23:09:02.552Z,23.90
2022-08-02T23:12:06.220Z,23.90
2022-08-02T23:15:10.635Z,23.80
2022-08-02T23:18:31.105Z,23.80
2022-08-02T23:22:01.539Z,23.70
2022-08-02T23:24:59.389Z,23.60
2022-08-02T23:28:02.227Z,23.50
2022-08-02T23:31:33.304Z,23.60
2022-08-02T23:34:40.629Z,23.60
2022-08-02T23:38:00.927Z,23.50
2022-08-02T23:41:04.895Z,23.50
2022-08-02T23:44:15.467Z,23.40
2022-08-02T23:47:18.443Z,23.30
2022-08-02T23:50:21.429Z,23.30
2022-08-02T23:53:25.608Z,23.30
2022-08-02T23:56:28.473Z,23.20
2022-08-02T23:59:31.394Z,23.10
